RYR5TV EPKT-LIRA
Flight info
| Callsign | RYR5TV |
|---|---|
| Flight time | N/A |
| Altitude | 36000 |
| Route | BABKO DCT MOMEP DCT VAMOG DCT DIMLO DCT RUGOG DCT EDUGI/N0459F350 DCT GUDPO DCT MOPUV |
| Aircraft | B738/M-SDE2E3FGHIRWXY/LB1 |
Departure
| Time | N/A |
|---|---|
| Airport | Katowice Wojciech Korfanty International Airport (EPKT) |
Arrival
| Time | 2026-05-05 14:07 |
|---|---|
| Airport | Ciampino–G. B. Pastine International Airport (LIRA) |
| Time | Latitude | Longitude | Altitude | Speed | Heading |
|---|---|---|---|---|---|
| 2026-05-05 13:41 | 43.08825 | 13.82793 | 35584 ft | 439 kts | 204° |
| 2026-05-05 13:41 | 43.05957 | 13.81407 | 35012 ft | 435 kts | 204° |
| 2026-05-05 13:42 | 43.03113 | 13.80036 | 34420 ft | 433 kts | 204° |
| 2026-05-05 13:42 | 43.00271 | 13.78665 | 33755 ft | 431 kts | 204° |
| 2026-05-05 13:42 | 42.97443 | 13.77302 | 33023 ft | 430 kts | 205° |
| 2026-05-05 13:42 | 42.94626 | 13.75945 | 32360 ft | 427 kts | 205° |
| 2026-05-05 13:43 | 42.91824 | 13.74596 | 31667 ft | 426 kts | 204° |
| 2026-05-05 13:43 | 42.89037 | 13.73256 | 30980 ft | 424 kts | 204° |
| 2026-05-05 13:43 | 42.86284 | 13.71933 | 30299 ft | 424 kts | 204° |
| 2026-05-05 13:43 | 42.83504 | 13.70598 | 29504 ft | 423 kts | 204° |
| 2026-05-05 13:44 | 42.80749 | 13.69279 | 28980 ft | 415 kts | 204° |
| 2026-05-05 13:44 | 42.78059 | 13.67904 | 28445 ft | 413 kts | 206° |
| 2026-05-05 13:44 | 42.75355 | 13.66404 | 27933 ft | 427 kts | 207° |
| 2026-05-05 13:44 | 42.72573 | 13.64820 | 27369 ft | 432 kts | 207° |
| 2026-05-05 13:45 | 42.69830 | 13.63264 | 26806 ft | 424 kts | 207° |
| 2026-05-05 13:45 | 42.67120 | 13.61740 | 26300 ft | 416 kts | 206° |
| 2026-05-05 13:45 | 42.64457 | 13.60254 | 25765 ft | 410 kts | 206° |
| 2026-05-05 13:45 | 42.61838 | 13.58799 | 25250 ft | 404 kts | 206° |
| 2026-05-05 13:46 | 42.59248 | 13.57366 | 24747 ft | 398 kts | 206° |
| 2026-05-05 13:46 | 42.56723 | 13.55971 | 24277 ft | 394 kts | 206° |
| 2026-05-05 13:46 | 42.54194 | 13.54576 | 23767 ft | 391 kts | 206° |
| 2026-05-05 13:46 | 42.51668 | 13.53180 | 23209 ft | 395 kts | 206° |
| 2026-05-05 13:47 | 42.49072 | 13.51745 | 22661 ft | 407 kts | 206° |
| 2026-05-05 13:47 | 42.46439 | 13.50294 | 22092 ft | 405 kts | 206° |
| 2026-05-05 13:47 | 42.43857 | 13.48877 | 21616 ft | 397 kts | 206° |
| 2026-05-05 13:47 | 42.41316 | 13.47486 | 21068 ft | 390 kts | 206° |
| 2026-05-05 13:48 | 42.38813 | 13.46116 | 20584 ft | 384 kts | 206° |
| 2026-05-05 13:48 | 42.36357 | 13.44771 | 20102 ft | 378 kts | 206° |
| 2026-05-05 13:48 | 42.33930 | 13.43441 | 19627 ft | 373 kts | 206° |
| 2026-05-05 13:48 | 42.31569 | 13.42148 | 19154 ft | 369 kts | 206° |
| 2026-05-05 13:49 | 42.29202 | 13.40853 | 18671 ft | 364 kts | 206° |
| 2026-05-05 13:49 | 42.26868 | 13.39577 | 18178 ft | 362 kts | 206° |
| 2026-05-05 13:49 | 42.24532 | 13.38300 | 17557 ft | 362 kts | 206° |
| 2026-05-05 13:49 | 42.22213 | 13.37034 | 17138 ft | 355 kts | 206° |
| 2026-05-05 13:50 | 42.19935 | 13.35794 | 16945 ft | 345 kts | 206° |
| 2026-05-05 13:50 | 42.17748 | 13.34604 | 16763 ft | 330 kts | 206° |
| 2026-05-05 13:50 | 42.15664 | 13.33472 | 16629 ft | 318 kts | 206° |
| 2026-05-05 13:50 | 42.13612 | 13.32348 | 16530 ft | 330 kts | 206° |
| 2026-05-05 13:51 | 42.11479 | 13.31183 | 16381 ft | 329 kts | 206° |
| 2026-05-05 13:51 | 42.09383 | 13.30048 | 16229 ft | 319 kts | 206° |
| 2026-05-05 13:51 | 42.07361 | 13.28934 | 16103 ft | 307 kts | 210° |
| 2026-05-05 13:51 | 42.05699 | 13.27269 | 15879 ft | 293 kts | 230° |
| 2026-05-05 13:52 | 42.04522 | 13.25113 | 15581 ft | 286 kts | 240° |
| 2026-05-05 13:52 | 42.03515 | 13.22812 | 15310 ft | 282 kts | 242° |
| 2026-05-05 13:52 | 42.02551 | 13.20571 | 15199 ft | 272 kts | 241° |
| 2026-05-05 13:52 | 42.01604 | 13.18404 | 15082 ft | 263 kts | 241° |
| 2026-05-05 13:53 | 42.00682 | 13.16318 | 14981 ft | 255 kts | 241° |
| 2026-05-05 13:53 | 41.99912 | 13.14254 | 14830 ft | 247 kts | 257° |
| 2026-05-05 13:53 | 41.99753 | 13.12001 | 14773 ft | 239 kts | 271° |
| 2026-05-05 13:53 | 42.00009 | 13.09762 | 14576 ft | 247 kts | 279° |
| 2026-05-05 13:54 | 42.00402 | 13.07436 | 14348 ft | 260 kts | 280° |
| 2026-05-05 13:54 | 42.00818 | 13.05040 | 14063 ft | 265 kts | 280° |
| 2026-05-05 13:54 | 42.01228 | 13.02646 | 13726 ft | 266 kts | 280° |
| 2026-05-05 13:54 | 42.01633 | 13.00217 | 13390 ft | 266 kts | 280° |
| 2026-05-05 13:55 | 42.02030 | 12.97790 | 13078 ft | 265 kts | 279° |
| 2026-05-05 13:55 | 42.02420 | 12.95377 | 12766 ft | 263 kts | 279° |
| 2026-05-05 13:55 | 42.02809 | 12.92966 | 12464 ft | 262 kts | 279° |
| 2026-05-05 13:55 | 42.03207 | 12.90570 | 12156 ft | 261 kts | 281° |
| 2026-05-05 13:56 | 42.03627 | 12.88198 | 11860 ft | 260 kts | 281° |
| 2026-05-05 13:56 | 42.04043 | 12.85861 | 11579 ft | 259 kts | 281° |
| 2026-05-05 13:56 | 42.04464 | 12.83499 | 11291 ft | 259 kts | 281° |
| 2026-05-05 13:56 | 42.04883 | 12.81137 | 11007 ft | 258 kts | 281° |
| 2026-05-05 13:57 | 42.05298 | 12.78792 | 10803 ft | 255 kts | 281° |
| 2026-05-05 13:57 | 42.05703 | 12.76492 | 10663 ft | 252 kts | 281° |
| 2026-05-05 13:57 | 42.06107 | 12.74195 | 10423 ft | 252 kts | 281° |
| 2026-05-05 13:57 | 42.06505 | 12.71930 | 10165 ft | 252 kts | 281° |
| 2026-05-05 13:58 | 42.06911 | 12.69611 | 9648 ft | 255 kts | 281° |
| 2026-05-05 13:58 | 42.07317 | 12.67290 | 9154 ft | 255 kts | 281° |
| 2026-05-05 13:58 | 42.07726 | 12.64954 | 8653 ft | 257 kts | 281° |
| 2026-05-05 13:58 | 42.08137 | 12.62597 | 8135 ft | 260 kts | 281° |
| 2026-05-05 13:59 | 42.08975 | 12.57783 | 7069 ft | 267 kts | 281° |
| 2026-05-05 13:59 | 42.09174 | 12.55338 | 6473 ft | 266 kts | 261° |
| 2026-05-05 14:00 | 42.07296 | 12.51385 | 5670 ft | 249 kts | 215° |
| 2026-05-05 14:00 | 42.06295 | 12.50688 | 5534 ft | 239 kts | 202° |
| 2026-05-05 14:00 | 42.04337 | 12.49723 | 5375 ft | 210 kts | 201° |
| 2026-05-05 14:00 | 42.03018 | 12.49080 | 5131 ft | 197 kts | 201° |
| 2026-05-05 14:01 | 42.01731 | 12.48450 | 4713 ft | 193 kts | 201° |
| 2026-05-05 14:01 | 42.00510 | 12.47851 | 4411 ft | 184 kts | 201° |
| 2026-05-05 14:01 | 41.99340 | 12.47276 | 4183 ft | 174 kts | 201° |
| 2026-05-05 14:01 | 41.98148 | 12.47008 | 3953 ft | 178 kts | 169° |
| 2026-05-05 14:02 | 41.97033 | 12.47718 | 3788 ft | 177 kts | 155° |
| 2026-05-05 14:02 | 41.95926 | 12.48455 | 3576 ft | 176 kts | 157° |
| 2026-05-05 14:02 | 41.94860 | 12.49168 | 3474 ft | 168 kts | 157° |
| 2026-05-05 14:02 | 41.93830 | 12.49873 | 3254 ft | 160 kts | 156° |
| 2026-05-05 14:03 | 41.92878 | 12.50532 | 3057 ft | 148 kts | 156° |
| 2026-05-05 14:03 | 41.91974 | 12.51155 | 2870 ft | 148 kts | 156° |
| 2026-05-05 14:03 | 41.91060 | 12.51786 | 2675 ft | 147 kts | 156° |
| 2026-05-05 14:03 | 41.90159 | 12.52410 | 2472 ft | 143 kts | 156° |
| 2026-05-05 14:04 | 41.89269 | 12.53026 | 2293 ft | 146 kts | 156° |
| 2026-05-05 14:04 | 41.88355 | 12.53657 | 2097 ft | 148 kts | 155° |
| 2026-05-05 14:04 | 41.87462 | 12.54275 | 1903 ft | 145 kts | 154° |
| 2026-05-05 14:04 | 41.86573 | 12.54891 | 1707 ft | 142 kts | 154° |
| 2026-05-05 14:05 | 41.85693 | 12.55500 | 1489 ft | 143 kts | 154° |
| 2026-05-05 14:05 | 41.84803 | 12.56115 | 1310 ft | 143 kts | 154° |
| 2026-05-05 14:05 | 41.83920 | 12.56727 | 1101 ft | 143 kts | 153° |
| 2026-05-05 14:05 | 41.83035 | 12.57352 | 915 ft | 142 kts | 154° |
| 2026-05-05 14:06 | 41.82171 | 12.57957 | 695 ft | 142 kts | 154° |
| 2026-05-05 14:06 | 41.81312 | 12.58541 | 526 ft | 135 kts | 154° |
| 2026-05-05 14:06 | 41.80508 | 12.59108 | 424 ft | 122 kts | 156° |
| 2026-05-05 14:06 | 41.79865 | 12.59530 | 415 ft | 80 kts | 154° |
| 2026-05-05 14:07 | 41.79396 | 12.59850 | 413 ft | 70 kts | 154° |
| 2026-05-05 14:07 | 41.79108 | 12.60048 | 413 ft | 19 kts | 162° |
| 2026-05-05 14:07 | 41.79031 | 12.59969 | 407 ft | 17 kts | 244° |
| 2026-05-05 14:07 | 41.79024 | 12.59918 | 406 ft | 0 kts | 288° |
| 2026-05-05 14:08 | 41.79039 | 12.59901 | 406 ft | 5 kts | 328° |
| 2026-05-05 14:08 | 41.79126 | 12.59838 | 406 ft | 18 kts | 333° |
| 2026-05-05 14:08 | 41.79238 | 12.59760 | 406 ft | 18 kts | 332° |
| 2026-05-05 14:08 | 41.79347 | 12.59684 | 406 ft | 17 kts | 332° |
| 2026-05-05 14:09 | 41.79453 | 12.59613 | 406 ft | 17 kts | 333° |
| 2026-05-05 14:09 | 41.79530 | 12.59545 | 405 ft | 11 kts | 298° |
| 2026-05-05 14:09 | 41.79515 | 12.59489 | 403 ft | 0 kts | 230° |
| 2026-05-05 14:09 | 41.79514 | 12.59488 | 404 ft | 1 kts | 230° |
| 2026-05-05 14:10 | 41.79502 | 12.59466 | 405 ft | 5 kts | 235° |
| 2026-05-05 14:10 | 41.79479 | 12.59423 | 405 ft | 0 kts | 235° |
| 2026-05-05 14:10 | 41.79479 | 12.59422 | 405 ft | 0 kts | 235° |
| 2026-05-05 14:10 | 41.79471 | 12.59408 | 403 ft | 8 kts | 233° |
| 2026-05-05 14:11 | 41.79463 | 12.59341 | 405 ft | 8 kts | 310° |
| 2026-05-05 14:11 | 41.79492 | 12.59314 | 405 ft | 8 kts | 323° |
| 2026-05-05 14:11 | 41.79547 | 12.59257 | 405 ft | 7 kts | 321° |
| 2026-05-05 14:11 | 41.79586 | 12.59215 | 405 ft | 7 kts | 321° |
| 2026-05-05 14:12 | 41.79605 | 12.59194 | 405 ft | 5 kts | 320° |
| 2026-05-05 14:12 | 41.79639 | 12.59159 | 405 ft | 5 kts | 322° |
| 2026-05-05 14:12 | 41.79661 | 12.59136 | 405 ft | 2 kts | 323° |
| 2026-05-05 14:12 | 41.79663 | 12.59134 | 405 ft | 1 kts | 322° |
| 2026-05-05 14:13 | 41.79667 | 12.59131 | 405 ft | 0 kts | 322° |